Friday, January 19, 2018, 2:35 AM EST
Back to Local

KLOM, Philadelphia, Wings Field Airport

Location: Blue Bell, PA, United States Lat: 40.138
Local Time: 2:35 AM EST ( 7:35 GMT) Lon: -75.265
Time Zone: US/Eastern Elev: 301 ft

Show me the last for .
Show Coded

Time T Td Feel RH Dir Speed Gust Alt SLP Vis Weather Sky Remarks
2018-01-19 02:15 19 14 - 79 - Calm - 30.07 - 10 CLR None
2018-01-19 01:55 18 14 - 85 - Calm - 30.07 - 10 CLR None
2018-01-19 01:35 18 14 - 85 - Calm - 30.07 - 10 CLR None
2018-01-19 01:15 18 14 - 85 - Calm - 30.07 - 10 CLR None
2018-01-19 00:55 19 14 - 79 - Calm - 30.07 - 10 CLR None
2018-01-19 00:35 19 14 - 79 - Calm - 30.08 - 10 CLR None
2018-01-19 00:15 18 14 - 85 - Calm - 30.09 - 10 CLR None
2018-01-18 23:55 19 14 - 79 - Calm - 30.10 - 10 CLR None
2018-01-18 23:35 18 14 - 85 - Calm - 30.10 - 10 CLR None
2018-01-18 23:15 18 14 - 85 - Calm - 30.11 - 10 CLR None
2018-01-18 22:55 19 14 - 79 - Calm - 30.11 - 10 CLR None
2018-01-18 22:35 19 12 - 73 - Calm - 30.11 - 10 CLR None
2018-01-18 22:15 19 14 - 79 - Calm - 30.11 - 10 CLR None
2018-01-18 21:55 21 14 - 73 - Calm - 30.11 - 10 CLR None
2018-01-18 21:35 21 14 - 73 - Calm - 30.11 - 10 CLR None
2018-01-18 21:15 21 14 - 73 - Calm - 30.10 - 10 CLR None
2018-01-18 20:55 23 14 - 67 - Calm - 30.10 - 10 CLR None
2018-01-18 20:35 23 14 - 67 - Calm - 30.09 - 10 CLR None
2018-01-18 20:15 25 14 - 62 - Calm - 30.09 - 10 CLR None
2018-01-18 19:55 25 12 - 58 - Calm - 30.08 - 10 CLR None
2018-01-18 19:35 27 12 - 53 - Calm - 30.08 - 10 CLR None
2018-01-18 19:15 28 12 - 50 - Calm - 30.08 - 10 CLR None
2018-01-18 18:55 28 12 - 50 - Calm - 30.07 - 10 CLR None
2018-01-18 18:35 28 12 25 50 310° 3 - 30.07 - 10 CLR None
2018-01-18 18:15 28 12 23 50 300° 5 - 30.06 - 10 CLR None
2018-01-18 17:55 28 12 23 50 300° 5 - 30.05 - 10 CLR None
2018-01-18 17:35 30 12 27 46 290° 3 - 30.03 - 10 CLR None
2018-01-18 17:15 30 12 25 46 310° 5 - 30.01 - 10 CLR None
2018-01-18 16:55 30 12 27 46 300° 3 - 30.00 - 10 CLR None
2018-01-18 16:35 30 12 24 46 300° 6 - 30.00 - 10 CLR None
2018-01-18 16:15 32 12 27 43 320° 5 - 30.00 - 10 CLR None
2018-01-18 15:55 32 12 24 43 310° 9 - 30.00 - 10 CLR None
2018-01-18 15:35 32 12 24 43 320° 9 - 29.99 - 10 CLR None
2018-01-18 15:15 32 10 21 39 310° 6 17 29.99 - 10 CLR None
2018-01-18 14:55 32 10 21 39 290° 9 16 29.99 - 10 CLR None
2018-01-18 14:35 32 10 20 39 300° 12 18 29.99 - 10 CLR None
2018-01-18 14:15 32 10 26 39 340° 7 - 29.99 - 10 CLR None
2018-01-18 13:55 30 10 27 42 310° 3 - 29.99 - 10 CLR None
2018-01-18 13:35 30 10 19 42 290° 8 16 29.99 - 10 CLR None
2018-01-18 13:15 30 10 23 42 290° 8 - 30.00 - 10 CLR None
2018-01-18 12:55 30 10 23 42 320° 8 - 30.02 - 10 CLR None
2018-01-18 12:35 30 10 23 42 320° 7 - 30.04 - 10 CLR None
2018-01-18 12:15 28 9 20 42 310° 8 - 30.05 - 10 CLR None
2018-01-18 11:55 28 9 17 42 310° 8 16 30.06 - 10 CLR None
2018-01-18 11:35 28 9 20 42 280° 8 - 30.07 - 10 CLR None
2018-01-18 11:15 27 9 13 45 300° 13 18 30.09 - 10 CLR None
2018-01-18 10:55 25 9 15 49 300° 9 - 30.10 - 10 CLR None
2018-01-18 10:35 23 9 14 53 300° 8 - 30.11 - 10 CLR None
2018-01-18 10:15 23 9 13 53 290° 9 - 30.12 - 10 CLR None
2018-01-18 09:55 23 7 12 49 300° 10 - 30.13 - 10 CLR None
2018-01-18 09:35 21 7 13 53 300° 7 - 30.12 - 10 CLR None
2018-01-18 09:15 21 7 13 53 290° 7 - 30.11 - 10 CLR None
2018-01-18 08:55 21 7 14 53 300° 6 - 30.11 - 10 CLR None
2018-01-18 08:35 19 7 9 57 290° 8 - 30.10 - 10 CLR None
2018-01-18 08:15 18 7 11 61 280° 5 - 30.11 - 10 CLR None
2018-01-18 07:55 16 9 7 72 290° 6 - 30.11 - 10 CLR None
2018-01-18 07:35 14 9 6 78 300° 5 - 30.12 - 10 CLR None
2018-01-18 07:15 14 9 - 78 - Calm - 30.14 - 10 CLR None
2018-01-18 06:55 14 9 - 78 - Calm - 30.15 - 10 CLR None
2018-01-18 06:35 14 9 - 78 - Calm - 30.14 - 10 CLR None
2018-01-18 06:15 14 7 - 72 - Calm - 30.13 - 10 CLR None
2018-01-18 05:55 14 7 8 72 200° 3 - 30.12 - 10 CLR None
2018-01-18 05:35 14 7 - 72 - Calm - 30.08 - 10 CLR None
2018-01-18 05:15 14 9 6 78 300° 5 - 30.07 - 10 CLR None
2018-01-18 04:55 14 7 5 72 300° 6 - 30.08 - 10 CLR None
2018-01-18 04:35 14 9 8 78 300° 3 - 30.09 - 10 CLR None
2018-01-18 04:15 14 9 - 78 - Calm - 30.11 - 10 CLR None
2018-01-18 03:55 14 9 - 78 - Calm - 30.12 - 10 CLR None
2018-01-18 03:35 14 9 6 78 290° 5 - 30.11 - 10 CLR None
2018-01-18 03:15 14 9 4 78 310° 7 - 30.12 - 10 CLR None
2018-01-18 02:55 16 9 9 72 300° 5 - 30.16 - 10 CLR None

Support USWX by starting your Amazon purchase here.